createdAt,value
2018-07-22T00:00:15.944Z,16.77
2018-07-22T00:02:43.560Z,26.00
2018-07-22T00:05:11.196Z,22.83
2018-07-22T00:07:39.137Z,22.77
2018-07-22T00:10:17.839Z,22.10
2018-07-22T00:12:45.487Z,18.43
2018-07-22T00:15:12.988Z,19.87
2018-07-22T00:17:40.591Z,18.60
2018-07-22T00:20:08.256Z,15.40
2018-07-22T00:22:35.816Z,16.23
2018-07-22T00:25:03.508Z,18.73
2018-07-22T00:27:31.067Z,18.83
2018-07-22T00:29:58.633Z,18.50
2018-07-22T00:32:26.262Z,20.17
2018-07-22T00:34:54.409Z,18.93
2018-07-22T00:37:22.225Z,21.83
2018-07-22T00:39:49.801Z,21.00
2018-07-22T00:42:17.336Z,23.67
2018-07-22T00:44:44.911Z,24.37
2018-07-22T00:47:12.511Z,22.53
2018-07-22T00:49:40.012Z,21.87
2018-07-22T00:52:07.574Z,22.97
2018-07-22T00:54:35.135Z,22.80
2018-07-22T00:57:02.717Z,24.43
2018-07-22T00:59:30.295Z,23.97
2018-07-22T01:01:58.014Z,23.27
2018-07-22T01:04:25.577Z,23.27
2018-07-22T01:06:53.130Z,21.67
2018-07-22T01:09:20.676Z,25.27
2018-07-22T01:11:48.300Z,23.83
2018-07-22T01:14:15.838Z,25.23
2018-07-22T01:16:43.567Z,25.13
2018-07-22T01:19:11.139Z,25.27
2018-07-22T01:21:38.789Z,25.17
2018-07-22T01:24:06.298Z,24.23
2018-07-22T01:26:33.894Z,22.40
2018-07-22T01:29:01.410Z,25.17
2018-07-22T01:31:29.076Z,22.33
2018-07-22T01:33:57.107Z,24.73
2018-07-22T01:36:24.628Z,23.17
2018-07-22T01:38:52.285Z,22.83
2018-07-22T01:41:19.839Z,24.37
2018-07-22T01:43:47.423Z,22.20
2018-07-22T01:46:14.936Z,22.00
2018-07-22T01:48:42.572Z,21.40
2018-07-22T01:51:10.081Z,20.80
2018-07-22T01:53:37.674Z,21.10
2018-07-22T01:56:05.237Z,20.10
2018-07-22T01:58:32.877Z,20.70
2018-07-22T02:01:00.759Z,20.73
2018-07-22T02:03:28.321Z,17.87
2018-07-22T02:05:55.886Z,19.47
2018-07-22T02:08:23.372Z,20.37
2018-07-22T02:10:50.955Z,18.50
2018-07-22T02:13:18.448Z,17.77
2018-07-22T02:15:45.991Z,18.90
2018-07-22T02:18:13.488Z,22.10
2018-07-22T02:20:41.084Z,21.33
2018-07-22T02:23:08.594Z,20.33
2018-07-22T02:25:36.057Z,19.70
2018-07-22T02:28:03.984Z,21.50
2018-07-22T02:30:31.553Z,24.30
2018-07-22T02:32:59.152Z,22.53
2018-07-22T02:35:26.666Z,25.37
2018-07-22T02:37:54.304Z,24.27
2018-07-22T02:40:21.772Z,25.30
2018-07-22T02:42:49.276Z,21.90
2018-07-22T02:45:16.834Z,23.20
2018-07-22T02:47:44.386Z,22.50
2018-07-22T02:50:11.912Z,25.20
2018-07-22T02:52:39.524Z,27.57
2018-07-22T02:55:07.136Z,25.83
2018-07-22T02:57:34.621Z,24.97
2018-07-22T03:00:02.148Z,21.40
2018-07-22T03:02:29.684Z,23.03
2018-07-22T03:04:57.182Z,23.67
2018-07-22T03:07:24.904Z,22.20
2018-07-22T03:09:52.511Z,20.20
2018-07-22T03:12:20.079Z,18.13
2018-07-22T03:14:47.613Z,17.77
2018-07-22T03:17:15.096Z,18.53
2018-07-22T03:19:42.632Z,17.40
2018-07-22T03:22:10.117Z,16.43
2018-07-22T03:24:37.617Z,15.30
2018-07-22T03:27:05.629Z,16.53
2018-07-22T03:29:33.189Z,16.70
2018-07-22T03:32:00.697Z,18.70
2018-07-22T03:34:28.265Z,17.33
2018-07-22T03:36:55.792Z,17.07
2018-07-22T03:39:23.281Z,17.13
2018-07-22T03:41:50.863Z,16.53
2018-07-22T03:44:18.803Z,17.00
2018-07-22T03:46:46.369Z,15.80
2018-07-22T03:49:13.898Z,16.37
2018-07-22T03:51:41.423Z,17.13
2018-07-22T03:54:09.435Z,16.10
2018-07-22T03:56:36.923Z,14.80
2018-07-22T03:59:04.492Z,13.83
2018-07-22T04:01:32.079Z,13.00
2018-07-22T04:03:59.656Z,14.13
2018-07-22T04:06:27.339Z,13.27
2018-07-22T04:08:54.900Z,15.90
2018-07-22T04:11:23.764Z,19.00
2018-07-22T04:13:51.306Z,17.30
2018-07-22T04:16:18.780Z,17.60
2018-07-22T04:18:51.992Z,17.33
2018-07-22T04:21:20.358Z,17.27
2018-07-22T04:23:47.997Z,16.87
2018-07-22T04:26:15.607Z,14.27
2018-07-22T04:28:43.171Z,17.53
2018-07-22T04:31:11.396Z,18.10
2018-07-22T04:33:38.916Z,17.03
2018-07-22T04:36:06.438Z,16.23
2018-07-22T04:38:34.053Z,16.43
2018-07-22T04:41:01.582Z,18.57
2018-07-22T04:43:29.147Z,17.97
2018-07-22T04:45:56.791Z,13.67
2018-07-22T04:48:24.348Z,14.33
2018-07-22T04:50:51.905Z,14.80
2018-07-22T04:53:19.445Z,15.07
2018-07-22T04:55:46.982Z,21.67
2018-07-22T04:58:14.957Z,16.00
2018-07-22T05:00:42.496Z,18.90
2018-07-22T05:03:10.016Z,22.13
2018-07-22T05:05:37.574Z,20.67
2018-07-22T05:08:05.173Z,21.80
2018-07-22T05:10:32.667Z,20.90
2018-07-22T05:13:00.249Z,24.00
2018-07-22T05:15:27.756Z,23.83
2018-07-22T05:17:55.270Z,22.93
2018-07-22T05:20:22.870Z,24.37
2018-07-22T05:22:50.450Z,23.33
2018-07-22T05:25:18.581Z,23.60
2018-07-22T05:27:46.083Z,22.10
2018-07-22T05:30:13.647Z,22.40
2018-07-22T05:32:41.273Z,21.37
2018-07-22T05:35:08.805Z,22.73
2018-07-22T05:37:36.360Z,22.70
2018-07-22T05:40:04.496Z,21.40
2018-07-22T05:42:32.076Z,22.63
2018-07-22T05:44:59.612Z,21.47
2018-07-22T05:47:27.174Z,21.70
2018-07-22T05:49:54.793Z,23.63
2018-07-22T05:52:22.361Z,23.93
2018-07-22T05:54:49.896Z,23.03
2018-07-22T05:57:17.444Z,24.37
2018-07-22T05:59:45.034Z,23.50
2018-07-22T06:02:12.597Z,23.50
2018-07-22T06:04:40.173Z,24.03
2018-07-22T06:07:07.718Z,25.70
2018-07-22T06:09:35.228Z,25.37
2018-07-22T06:12:02.850Z,23.80
2018-07-22T06:14:30.463Z,25.00
2018-07-22T06:16:58.062Z,24.13
2018-07-22T06:19:25.670Z,22.93
2018-07-22T06:21:53.183Z,24.30
2018-07-22T06:24:20.805Z,26.63
2018-07-22T06:26:48.399Z,23.50
2018-07-22T06:29:16.048Z,25.77
2018-07-22T06:31:43.580Z,23.90
2018-07-22T06:34:11.219Z,25.10
2018-07-22T06:36:39.910Z,25.00
2018-07-22T06:39:09.141Z,25.70
2018-07-22T06:41:36.736Z,26.20
2018-07-22T06:44:04.424Z,27.67
2018-07-22T06:46:31.987Z,27.90
2018-07-22T06:48:59.582Z,26.97
2018-07-22T06:51:27.244Z,25.40
2018-07-22T06:53:54.848Z,25.60
2018-07-22T06:56:22.388Z,26.20
2018-07-22T06:58:49.999Z,25.03
2018-07-22T07:01:17.552Z,23.60
2018-07-22T07:03:45.173Z,21.00
2018-07-22T07:06:12.732Z,24.37
2018-07-22T07:08:40.652Z,25.83
2018-07-22T07:11:08.294Z,23.70
2018-07-22T07:13:35.933Z,24.33
2018-07-22T07:16:03.525Z,26.73
2018-07-22T07:18:31.124Z,26.53
2018-07-22T07:20:58.707Z,27.67
2018-07-22T07:23:26.857Z,26.57
2018-07-22T07:25:54.378Z,26.33
2018-07-22T07:28:21.993Z,25.20
2018-07-22T07:30:49.600Z,27.83
2018-07-22T07:33:17.193Z,28.77
2018-07-22T07:35:44.857Z,27.97
2018-07-22T07:38:12.507Z,31.53
2018-07-22T07:40:40.201Z,32.53
2018-07-22T07:43:07.855Z,30.77
2018-07-22T07:45:35.461Z,31.90
2018-07-22T07:48:03.745Z,33.40
2018-07-22T07:50:31.720Z,30.77
2018-07-22T07:52:59.832Z,33.50
2018-07-22T07:55:27.388Z,30.83
2018-07-22T07:57:54.928Z,32.67
2018-07-22T08:00:22.520Z,32.07
2018-07-22T08:02:50.116Z,32.07
2018-07-22T08:05:17.700Z,30.20
2018-07-22T08:07:45.266Z,29.77
2018-07-22T08:10:12.799Z,26.43
2018-07-22T08:12:40.276Z,26.73
2018-07-22T08:15:07.952Z,30.50
2018-07-22T08:17:39.886Z,30.90
2018-07-22T08:20:07.807Z,26.40
2018-07-22T08:22:35.538Z,28.20
2018-07-22T08:25:03.448Z,25.70
2018-07-22T08:27:31.121Z,26.20
2018-07-22T08:29:58.931Z,24.80
2018-07-22T08:32:26.580Z,26.50
2018-07-22T08:34:54.202Z,25.13
2018-07-22T08:37:22.033Z,26.33
2018-07-22T08:39:49.732Z,23.40
2018-07-22T08:42:17.533Z,26.20
2018-07-22T08:44:45.129Z,23.87
2018-07-22T08:47:12.787Z,23.27
2018-07-22T08:49:40.556Z,25.73
2018-07-22T08:52:08.192Z,24.23
2018-07-22T08:54:36.157Z,27.40
2018-07-22T08:57:04.568Z,24.03
2018-07-22T08:59:32.252Z,21.30
2018-07-22T09:02:00.295Z,20.10
2018-07-22T09:04:28.221Z,23.43
2018-07-22T09:06:55.989Z,24.10
2018-07-22T09:09:23.835Z,21.83
2018-07-22T09:11:51.571Z,21.20
2018-07-22T09:14:19.193Z,22.70
2018-07-22T09:16:47.171Z,19.77
2018-07-22T09:19:14.811Z,19.20
2018-07-22T09:21:42.602Z,18.70
2018-07-22T09:24:10.340Z,18.17
2018-07-22T09:26:38.213Z,18.03
2018-07-22T09:29:05.978Z,19.40
2018-07-22T09:31:33.809Z,17.90
2018-07-22T09:34:01.554Z,18.03
2018-07-22T09:36:30.045Z,17.27
2018-07-22T09:38:57.598Z,17.87
2018-07-22T09:41:25.138Z,16.33
2018-07-22T09:43:52.795Z,15.90
2018-07-22T09:46:20.653Z,16.03
2018-07-22T09:48:48.342Z,16.13
2018-07-22T09:51:15.944Z,17.40
2018-07-22T09:53:43.641Z,15.33
2018-07-22T09:56:13.293Z,15.80
2018-07-22T09:58:41.468Z,17.90
2018-07-22T10:01:09.164Z,17.83
2018-07-22T10:03:36.852Z,17.43
2018-07-22T10:06:04.813Z,17.00
2018-07-22T10:08:32.829Z,18.23
2018-07-22T10:11:00.424Z,16.73
2018-07-22T10:13:28.289Z,18.27
2018-07-22T10:15:56.587Z,17.10
2018-07-22T10:18:24.590Z,19.07
2018-07-22T10:20:52.289Z,20.67
2018-07-22T10:23:20.013Z,21.10
2018-07-22T10:25:47.806Z,20.40
2018-07-22T10:28:15.528Z,22.60
2018-07-22T10:30:43.525Z,23.03
2018-07-22T10:33:11.165Z,21.17
2018-07-22T10:35:38.852Z,17.77
2018-07-22T10:38:06.615Z,20.70
2018-07-22T10:40:34.285Z,21.23
2018-07-22T10:43:03.085Z,20.50
2018-07-22T10:45:30.904Z,17.03
2018-07-22T10:47:58.616Z,18.07
2018-07-22T10:50:26.533Z,18.73
2018-07-22T10:52:54.159Z,21.67
2018-07-22T10:55:21.871Z,21.07
2018-07-22T10:57:49.527Z,20.50
2018-07-22T11:00:17.317Z,20.37
2018-07-22T11:02:45.172Z,18.03
2018-07-22T11:05:12.824Z,17.37
2018-07-22T11:07:40.506Z,17.30
2018-07-22T11:10:08.140Z,19.90
2018-07-22T11:12:35.905Z,19.80
2018-07-22T11:15:04.054Z,17.90
2018-07-22T11:17:31.713Z,16.80
2018-07-22T11:19:59.361Z,17.17
2018-07-22T11:22:27.813Z,18.20
2018-07-22T11:24:55.472Z,18.27
2018-07-22T11:27:23.134Z,18.60
2018-07-22T11:29:50.710Z,20.27
2018-07-22T11:32:18.391Z,21.87
2018-07-22T11:34:46.067Z,22.23
2018-07-22T11:37:13.641Z,17.80
2018-07-22T11:39:41.580Z,17.43
2018-07-22T11:42:09.579Z,17.83
2018-07-22T11:44:37.288Z,17.50
2018-07-22T11:47:05.290Z,18.10
2018-07-22T11:49:34.379Z,19.43
2018-07-22T11:52:02.112Z,22.27
2018-07-22T11:54:30.492Z,20.03
2018-07-22T11:56:58.136Z,17.20
2018-07-22T11:59:25.817Z,19.23
2018-07-22T12:01:53.589Z,16.43
2018-07-22T12:04:21.699Z,21.77
2018-07-22T12:06:49.356Z,20.27
2018-07-22T12:09:17.033Z,22.93
2018-07-22T12:11:44.797Z,21.37
2018-07-22T12:14:13.109Z,20.03
2018-07-22T12:16:40.912Z,21.90
2018-07-22T12:19:08.757Z,19.77
2018-07-22T12:21:36.553Z,19.60
2018-07-22T12:24:04.277Z,17.60
2018-07-22T12:26:31.985Z,19.93
2018-07-22T12:29:00.412Z,21.60
2018-07-22T12:31:28.048Z,23.10
2018-07-22T12:33:56.049Z,19.13
2018-07-22T12:36:23.701Z,17.53
2018-07-22T12:38:51.303Z,18.27
2018-07-22T12:41:18.968Z,18.27
2018-07-22T12:43:46.624Z,20.60
2018-07-22T12:46:14.384Z,18.83
2018-07-22T12:48:42.105Z,18.30
2018-07-22T12:51:09.742Z,19.20
2018-07-22T12:53:37.347Z,19.50
2018-07-22T12:56:05.231Z,15.80
2018-07-22T12:58:33.077Z,20.00
2018-07-22T13:01:00.775Z,17.93
2018-07-22T13:03:28.382Z,17.87
2018-07-22T13:05:56.084Z,16.07
2018-07-22T13:08:24.552Z,17.23
2018-07-22T13:10:52.277Z,16.47
2018-07-22T13:13:19.887Z,15.40
2018-07-22T13:15:47.533Z,15.20
2018-07-22T13:18:15.194Z,13.80
2018-07-22T13:20:42.891Z,14.93
2018-07-22T13:23:10.642Z,15.20
2018-07-22T13:25:42.711Z,16.20
2018-07-22T13:28:10.324Z,16.30
2018-07-22T13:30:37.922Z,15.50
2018-07-22T13:33:05.555Z,13.57
2018-07-22T13:35:33.287Z,13.03
2018-07-22T13:38:01.147Z,12.17
2018-07-22T13:40:28.766Z,12.50
2018-07-22T13:42:56.422Z,11.37
2018-07-22T13:45:24.112Z,11.03
2018-07-22T13:47:51.807Z,12.97
2018-07-22T13:50:19.486Z,12.87
2018-07-22T13:52:47.593Z,13.20
2018-07-22T13:55:15.201Z,13.33
2018-07-22T13:57:42.885Z,13.10
2018-07-22T14:00:10.455Z,11.60
2018-07-22T14:02:38.119Z,13.47
2018-07-22T14:05:05.963Z,13.10
2018-07-22T14:07:33.507Z,13.25
2018-07-22T14:10:01.333Z,12.97
2018-07-22T14:12:28.935Z,13.80
2018-07-22T14:14:56.653Z,12.80
2018-07-22T14:17:24.385Z,14.80
2018-07-22T14:19:52.089Z,13.80
2018-07-22T14:22:19.932Z,13.77
2018-07-22T14:24:47.806Z,14.57
2018-07-22T14:27:15.742Z,14.83
2018-07-22T14:29:43.552Z,14.00
2018-07-22T14:32:11.273Z,13.80
2018-07-22T14:34:38.991Z,13.83
2018-07-22T14:37:06.675Z,14.17
2018-07-22T14:39:34.300Z,13.73
2018-07-22T14:42:01.929Z,14.57
2018-07-22T14:44:29.657Z,14.03
2018-07-22T14:46:57.444Z,17.40
2018-07-22T14:49:25.155Z,14.20
2018-07-22T14:51:52.813Z,16.10
2018-07-22T14:54:20.463Z,15.87
2018-07-22T14:56:48.059Z,18.70
2018-07-22T14:59:15.729Z,24.93
2018-07-22T15:01:43.389Z,29.30
2018-07-22T15:04:11.024Z,26.53
2018-07-22T15:06:38.572Z,33.63
2018-07-22T15:09:07.794Z,29.30
2018-07-22T15:11:35.553Z,29.77
2018-07-22T15:14:03.323Z,30.50
2018-07-22T15:16:30.878Z,25.30
2018-07-22T15:18:58.455Z,30.87
2018-07-22T15:21:26.128Z,32.30
2018-07-22T15:23:53.745Z,31.60
2018-07-22T15:26:21.484Z,28.67
2018-07-22T15:28:49.105Z,25.27
2018-07-22T15:31:16.876Z,30.30
2018-07-22T15:33:44.561Z,20.23
2018-07-22T15:36:12.123Z,18.93
2018-07-22T15:38:39.744Z,18.67
2018-07-22T15:41:07.338Z,18.30
2018-07-22T15:43:35.357Z,22.90
2018-07-22T15:46:02.933Z,22.70
2018-07-22T15:48:30.495Z,20.10
2018-07-22T15:50:58.084Z,18.07
2018-07-22T15:53:25.681Z,22.07
2018-07-22T15:55:53.406Z,23.40
2018-07-22T15:58:21.027Z,27.20
2018-07-22T16:00:48.573Z,27.77
2018-07-22T16:03:16.175Z,26.80
2018-07-22T16:05:43.881Z,25.90
2018-07-22T16:08:11.580Z,29.67
2018-07-22T16:10:39.135Z,29.27
2018-07-22T16:13:06.747Z,23.97
2018-07-22T16:15:34.329Z,25.20
2018-07-22T16:18:01.926Z,25.37
2018-07-22T16:20:29.539Z,26.30
2018-07-22T16:22:57.162Z,27.93
2018-07-22T16:25:24.805Z,27.63
2018-07-22T16:27:52.528Z,24.77
2018-07-22T16:30:20.160Z,22.87
2018-07-22T16:32:47.814Z,18.53
2018-07-22T16:35:15.459Z,18.53
2018-07-22T16:37:43.078Z,23.70
2018-07-22T16:40:10.695Z,21.60
2018-07-22T16:42:38.791Z,21.60
2018-07-22T16:45:06.554Z,21.73
2018-07-22T16:47:34.228Z,22.80
2018-07-22T16:50:01.861Z,22.87
2018-07-22T16:52:29.581Z,19.67
2018-07-22T16:54:57.425Z,18.83
2018-07-22T16:57:25.169Z,17.83
2018-07-22T16:59:52.971Z,18.53
2018-07-22T17:02:20.739Z,16.00
2018-07-22T17:04:48.448Z,16.00
2018-07-22T17:07:20.920Z,15.97
2018-07-22T17:09:48.725Z,15.43
2018-07-22T17:12:16.705Z,15.40
2018-07-22T17:14:44.551Z,15.20
2018-07-22T17:17:13.598Z,19.40
2018-07-22T17:19:41.475Z,24.60
2018-07-22T17:22:09.121Z,20.80
2018-07-22T17:24:36.728Z,17.17
2018-07-22T17:27:04.536Z,18.47
2018-07-22T17:29:32.355Z,17.40
2018-07-22T17:32:00.451Z,14.93
2018-07-22T17:34:28.096Z,16.17
2018-07-22T17:36:55.753Z,16.67
2018-07-22T17:39:23.429Z,15.37
2018-07-22T17:41:51.201Z,15.60
2018-07-22T17:44:19.056Z,15.30
2018-07-22T17:46:47.022Z,17.30
2018-07-22T17:49:14.725Z,17.73
2018-07-22T17:51:42.642Z,17.10
2018-07-22T17:54:10.382Z,17.13
2018-07-22T17:56:38.279Z,19.23
2018-07-22T17:59:05.956Z,19.90
2018-07-22T18:01:33.766Z,19.83
2018-07-22T18:04:01.711Z,19.23
2018-07-22T18:06:29.587Z,21.00
2018-07-22T18:08:57.297Z,21.57
2018-07-22T18:11:25.182Z,21.37
2018-07-22T18:13:53.013Z,22.33
2018-07-22T18:16:20.934Z,22.73
2018-07-22T18:18:48.861Z,21.00
2018-07-22T18:21:16.797Z,23.43
2018-07-22T18:23:44.507Z,23.70
2018-07-22T18:26:12.210Z,23.10
2018-07-22T18:28:39.763Z,24.47
2018-07-22T18:31:07.542Z,22.50
2018-07-22T18:33:35.257Z,23.67
2018-07-22T18:36:03.041Z,22.70
2018-07-22T18:38:30.937Z,23.80
2018-07-22T18:40:58.900Z,30.20
2018-07-22T18:43:27.823Z,24.63
2018-07-22T18:45:55.536Z,24.10
2018-07-22T18:48:23.606Z,23.40
2018-07-22T18:50:51.594Z,23.50
2018-07-22T18:53:19.789Z,26.20
2018-07-22T18:55:47.796Z,24.40
2018-07-22T18:58:15.612Z,24.17
2018-07-22T19:00:43.629Z,26.67
2018-07-22T19:03:11.609Z,27.00
2018-07-22T19:05:39.643Z,26.80
2018-07-22T19:08:07.569Z,26.43
2018-07-22T19:10:35.490Z,25.53
2018-07-22T19:13:03.745Z,25.27
2018-07-22T19:15:31.966Z,25.80
2018-07-22T19:18:00.028Z,23.00
2018-07-22T19:20:30.469Z,25.03
2018-07-22T19:22:58.437Z,25.67
2018-07-22T19:25:26.478Z,26.40
2018-07-22T19:27:54.543Z,26.83
2018-07-22T19:30:22.664Z,25.03
2018-07-22T19:32:50.637Z,25.10
2018-07-22T19:35:18.597Z,27.33
2018-07-22T19:37:46.616Z,25.97
2018-07-22T19:40:14.633Z,25.90
2018-07-22T19:42:42.707Z,28.30
2018-07-22T19:45:10.736Z,26.63
2018-07-22T19:47:38.846Z,25.67
2018-07-22T19:50:06.996Z,26.13
2018-07-22T19:52:34.889Z,25.83
2018-07-22T19:55:02.820Z,25.50
2018-07-22T19:57:31.139Z,27.13
2018-07-22T19:59:59.040Z,27.50
2018-07-22T20:02:27.175Z,28.87
2018-07-22T20:04:55.218Z,27.53
2018-07-22T20:07:23.313Z,29.93
2018-07-22T20:09:51.382Z,24.30
2018-07-22T20:12:19.436Z,23.87
2018-07-22T20:14:47.481Z,23.27
2018-07-22T20:17:15.530Z,22.83
2018-07-22T20:19:43.680Z,23.80
2018-07-22T20:22:11.758Z,25.23
2018-07-22T20:24:39.730Z,28.10
2018-07-22T20:27:07.725Z,26.43
2018-07-22T20:29:35.337Z,28.70
2018-07-22T20:32:03.043Z,28.17
2018-07-22T20:34:30.685Z,29.90
2018-07-22T20:36:58.294Z,28.50
2018-07-22T20:39:26.085Z,29.60
2018-07-22T20:41:53.851Z,30.30
2018-07-22T20:44:21.542Z,29.60
2018-07-22T20:46:49.216Z,30.50
2018-07-22T20:49:16.860Z,30.40
2018-07-22T20:51:44.526Z,31.47
2018-07-22T20:54:12.200Z,35.50
2018-07-22T20:56:39.868Z,28.97
2018-07-22T20:59:07.480Z,31.60
2018-07-22T21:01:35.518Z,26.20
2018-07-22T21:04:03.130Z,26.77
2018-07-22T21:06:31.062Z,26.57
2018-07-22T21:08:58.712Z,26.00
2018-07-22T21:11:35.460Z,30.63
2018-07-22T21:14:03.298Z,28.60
2018-07-22T21:16:30.949Z,29.47
2018-07-22T21:18:58.492Z,28.70
2018-07-22T21:21:26.087Z,29.03
2018-07-22T21:23:53.690Z,31.47
2018-07-22T21:26:21.281Z,32.10
2018-07-22T21:28:48.892Z,32.57
2018-07-22T21:31:16.540Z,33.00
2018-07-22T21:33:44.201Z,33.53
2018-07-22T21:36:11.761Z,37.00
2018-07-22T21:38:39.352Z,35.70
2018-07-22T21:41:06.983Z,39.47
2018-07-22T21:43:34.556Z,36.20
2018-07-22T21:46:02.905Z,36.60
2018-07-22T21:48:30.473Z,37.20
2018-07-22T21:50:57.987Z,36.00
2018-07-22T21:53:25.544Z,35.60
2018-07-22T21:55:53.104Z,35.80
2018-07-22T21:58:20.693Z,36.43
2018-07-22T22:00:48.335Z,36.03
2018-07-22T22:03:16.012Z,35.80
2018-07-22T22:05:43.539Z,37.07
2018-07-22T22:08:11.093Z,37.17
2018-07-22T22:10:39.169Z,39.17
2018-07-22T22:13:06.833Z,40.40
2018-07-22T22:15:34.356Z,40.80
2018-07-22T22:18:03.086Z,43.40
2018-07-22T22:20:31.154Z,43.13
2018-07-22T22:22:58.783Z,43.40
2018-07-22T22:25:26.388Z,46.00
2018-07-22T22:27:54.026Z,47.83
2018-07-22T22:30:21.664Z,49.30
2018-07-22T22:32:49.173Z,48.60
2018-07-22T22:35:16.831Z,44.67
2018-07-22T22:37:44.995Z,46.60
2018-07-22T22:40:13.551Z,43.47
2018-07-22T22:42:42.466Z,41.57
2018-07-22T22:45:10.145Z,39.63
2018-07-22T22:47:37.737Z,40.57
2018-07-22T22:50:05.600Z,43.10
2018-07-22T22:52:33.242Z,40.53
2018-07-22T22:55:00.769Z,40.37
2018-07-22T22:57:28.365Z,40.03
2018-07-22T22:59:56.004Z,39.13
2018-07-22T23:02:24.924Z,39.93
2018-07-22T23:04:52.541Z,36.67
2018-07-22T23:07:20.143Z,39.03
2018-07-22T23:09:47.554Z,38.40
2018-07-22T23:12:15.114Z,33.03
2018-07-22T23:14:42.656Z,30.80
2018-07-22T23:17:10.644Z,33.00
2018-07-22T23:19:38.173Z,34.03
2018-07-22T23:22:05.764Z,33.93
2018-07-22T23:24:33.286Z,34.47
2018-07-22T23:27:00.840Z,37.80
2018-07-22T23:29:28.379Z,39.73
2018-07-22T23:31:55.952Z,39.67
2018-07-22T23:34:23.563Z,40.20
2018-07-22T23:36:51.219Z,40.20
2018-07-22T23:39:18.788Z,38.30
2018-07-22T23:41:46.320Z,38.30
2018-07-22T23:44:13.908Z,38.77
2018-07-22T23:46:41.528Z,40.23
2018-07-22T23:49:09.081Z,36.63
2018-07-22T23:51:36.619Z,36.63
2018-07-22T23:54:04.238Z,36.50
2018-07-22T23:56:31.764Z,38.30
2018-07-22T23:58:59.283Z,33.80
